createdAt,value
2023-04-05T00:00:05.709Z,95.92
2023-04-05T00:02:36.612Z,96.12
2023-04-05T00:05:08.146Z,96.37
2023-04-05T00:07:38.663Z,95.98
2023-04-05T00:10:09.409Z,96.38
2023-04-05T00:12:40.853Z,96.68
2023-04-05T00:15:15.030Z,96.64
2023-04-05T00:20:39.091Z,96.52
2023-04-05T00:23:10.130Z,96.52
2023-04-05T00:25:40.472Z,96.85
2023-04-05T00:28:11.994Z,96.47
2023-04-05T00:30:43.421Z,96.32
2023-04-05T00:33:14.877Z,96.56
2023-04-05T00:35:46.419Z,96.75
2023-04-05T00:38:16.806Z,97.00
2023-04-05T00:40:47.913Z,97.00
2023-04-05T00:43:23.684Z,97.50
2023-04-05T00:45:57.922Z,96.56
2023-04-05T00:48:29.686Z,96.56
2023-04-05T00:51:00.210Z,95.97
2023-04-05T00:53:31.715Z,96.48
2023-04-05T00:56:03.710Z,95.79
2023-04-05T00:58:35.799Z,95.85
2023-04-05T01:01:30.040Z,95.90
2023-04-05T01:04:03.752Z,95.77
2023-04-05T01:06:40.710Z,95.82
2023-04-05T01:09:34.873Z,95.82
2023-04-05T01:12:10.307Z,95.35
2023-04-05T01:14:49.647Z,95.25
2023-04-05T01:17:23.146Z,95.25
2023-04-05T01:19:56.454Z,95.35
2023-04-05T01:23:02.500Z,95.74
2023-04-05T01:25:52.173Z,95.72
2023-04-05T01:28:48.406Z,95.64
2023-04-05T01:31:24.572Z,95.31
2023-04-05T01:34:18.157Z,95.31
2023-04-05T01:39:40.921Z,95.43
2023-04-05T01:42:11.489Z,95.33
2023-04-05T01:44:42.534Z,95.45
2023-04-05T01:47:13.094Z,95.49
2023-04-05T01:49:43.979Z,95.49
2023-04-05T01:52:15.000Z,95.75
2023-04-05T01:54:45.564Z,95.95
2023-04-05T01:57:16.060Z,95.95
2023-04-05T01:59:46.896Z,95.52
2023-04-05T02:02:17.532Z,95.40
2023-04-05T02:04:48.036Z,96.02
2023-04-05T02:07:19.774Z,96.24
2023-04-05T02:09:50.216Z,96.03
2023-04-05T02:12:20.676Z,96.78
2023-04-05T02:14:51.718Z,97.30
2023-04-05T02:17:22.944Z,97.13
2023-04-05T02:19:53.435Z,96.79
2023-04-05T02:22:25.370Z,96.13
2023-04-05T02:24:55.870Z,96.44
2023-04-05T02:27:26.555Z,96.29
2023-04-05T02:29:58.389Z,96.29
2023-04-05T02:32:28.908Z,96.10
2023-04-05T02:35:03.528Z,97.83
2023-04-05T02:37:34.716Z,97.18
2023-04-05T02:40:09.257Z,97.87
2023-04-05T02:42:40.737Z,97.64
2023-04-05T02:45:11.528Z,98.33
2023-04-05T02:47:48.768Z,97.78
2023-04-05T02:50:19.615Z,97.81
2023-04-05T02:52:52.871Z,97.96
2023-04-05T02:55:23.419Z,98.85
2023-04-05T02:57:53.956Z,99.05
2023-04-05T03:00:24.639Z,99.54
2023-04-05T03:02:56.987Z,99.33
2023-04-05T03:05:28.638Z,99.33
2023-04-05T03:08:00.462Z,98.79
2023-04-05T03:10:32.282Z,98.79
2023-04-05T03:13:02.978Z,99.43
2023-04-05T03:15:34.027Z,99.12
2023-04-05T03:18:05.363Z,99.01
2023-04-05T03:20:37.714Z,98.92
2023-04-05T03:23:09.087Z,98.41
2023-04-05T03:25:39.857Z,98.41
2023-04-05T03:28:11.138Z,98.35
2023-04-05T03:30:41.777Z,97.93
2023-04-05T03:33:12.834Z,98.93
2023-04-05T03:35:43.906Z,98.93
2023-04-05T03:38:15.013Z,99.66
2023-04-05T03:40:46.852Z,99.07
2023-04-05T03:43:18.165Z,98.45
2023-04-05T03:45:51.346Z,97.72
2023-04-05T03:48:22.096Z,98.11
2023-04-05T03:50:52.678Z,97.44
2023-04-05T03:53:26.546Z,97.07
2023-04-05T03:56:03.307Z,96.90
2023-04-05T03:58:35.284Z,97.31
2023-04-05T04:01:05.805Z,96.97
2023-04-05T04:03:38.217Z,96.97
2023-04-05T04:06:11.315Z,97.55
2023-04-05T04:08:45.726Z,97.61
2023-04-05T04:11:15.948Z,96.99
2023-04-05T04:13:48.145Z,97.13
2023-04-05T04:16:18.984Z,96.93
2023-04-05T04:18:59.868Z,96.52
2023-04-05T04:21:30.467Z,96.27
2023-04-05T04:24:01.427Z,95.97
2023-04-05T04:26:34.493Z,96.22
2023-04-05T04:29:07.764Z,95.67
2023-04-05T04:31:41.040Z,95.67
2023-04-05T04:34:16.369Z,95.10
2023-04-05T04:36:48.996Z,95.00
2023-04-05T04:39:29.133Z,94.87
2023-04-05T04:41:56.465Z,94.75
2023-04-05T04:44:31.528Z,94.75
2023-04-05T04:47:02.586Z,93.77
2023-04-05T04:49:36.254Z,93.73
2023-04-05T04:52:09.340Z,93.38
2023-04-05T04:54:39.940Z,93.05
2023-04-05T04:57:11.740Z,92.67
2023-04-05T04:59:44.459Z,92.07
2023-04-05T05:02:15.592Z,92.13
2023-04-05T05:04:50.040Z,90.61
2023-04-05T05:07:22.113Z,90.91
2023-04-05T05:10:00.935Z,90.41
2023-04-05T05:12:32.011Z,90.41
2023-04-05T05:15:02.406Z,89.20
2023-04-05T05:17:33.179Z,88.88
2023-04-05T05:20:04.338Z,89.75
2023-04-05T05:22:35.173Z,89.75
2023-04-05T05:25:09.458Z,88.56
2023-04-05T05:27:41.061Z,88.77
2023-04-05T05:30:14.916Z,88.77
2023-04-05T05:32:45.960Z,86.73
2023-04-05T05:35:23.759Z,86.69
2023-04-05T05:37:54.249Z,85.41
2023-04-05T05:40:32.018Z,84.83
2023-04-05T05:43:05.582Z,84.83
2023-04-05T05:45:36.910Z,82.06
2023-04-05T05:48:07.596Z,79.73
2023-04-05T05:50:38.068Z,78.77
2023-04-05T05:53:08.926Z,78.77
2023-04-05T05:55:41.592Z,78.02
2023-04-05T05:58:36.194Z,76.03
2023-04-05T06:01:07.143Z,76.03
2023-04-05T06:03:39.514Z,74.97
2023-04-05T06:06:10.251Z,74.91
2023-04-05T06:08:51.209Z,73.11
2023-04-05T06:11:23.846Z,73.11
2023-04-05T06:13:56.979Z,71.94
2023-04-05T06:16:31.981Z,71.94
2023-04-05T06:19:03.088Z,71.23
2023-04-05T06:21:35.212Z,70.44
2023-04-05T06:24:06.906Z,70.66
2023-04-05T06:26:37.694Z,67.70
2023-04-05T06:29:08.748Z,69.28
2023-04-05T06:31:39.796Z,67.60
2023-04-05T06:34:10.178Z,67.60
2023-04-05T06:36:52.947Z,67.29
2023-04-05T06:39:21.910Z,66.62
2023-04-05T06:41:52.203Z,66.62
2023-04-05T06:44:23.005Z,66.75
2023-04-05T06:46:53.518Z,66.75
2023-04-05T06:49:24.166Z,68.12
2023-04-05T06:52:04.232Z,68.12
2023-04-05T06:54:37.153Z,66.62
2023-04-05T06:57:07.812Z,67.93
2023-04-05T06:59:38.194Z,67.85
2023-04-05T07:02:09.018Z,66.43
2023-04-05T07:04:40.393Z,66.43
2023-04-05T07:07:10.872Z,63.93
2023-04-05T07:09:41.910Z,61.92
2023-04-05T07:12:12.443Z,61.92
2023-04-05T07:14:43.157Z,61.56
2023-04-05T07:17:15.377Z,61.56
2023-04-05T07:19:46.234Z,62.14
2023-04-05T07:22:26.183Z,62.14
2023-04-05T07:28:00.926Z,59.81
2023-04-05T07:30:40.253Z,62.97
2023-04-05T07:33:09.870Z,62.97
2023-04-05T07:35:40.527Z,63.80
2023-04-05T07:38:12.561Z,61.97
2023-04-05T07:40:43.917Z,60.09
2023-04-05T07:43:16.864Z,60.09
2023-04-05T07:45:46.978Z,60.11
2023-04-05T07:48:17.732Z,60.52
2023-04-05T07:50:48.919Z,60.52
2023-04-05T07:53:26.807Z,61.07
2023-04-05T07:56:05.829Z,61.07
2023-04-05T07:58:39.708Z,61.22
2023-04-05T08:01:14.721Z,60.57
2023-04-05T08:03:48.737Z,59.66
2023-04-05T08:06:24.875Z,59.66
2023-04-05T08:08:55.327Z,59.70
2023-04-05T08:11:26.044Z,60.14
2023-04-05T08:14:04.777Z,59.01
2023-04-05T08:16:34.523Z,59.01
2023-04-05T08:19:10.811Z,58.58
2023-04-05T08:21:41.073Z,62.15
2023-04-05T08:24:14.627Z,62.57
2023-04-05T08:26:47.485Z,64.98
2023-04-05T08:29:20.634Z,64.32
2023-04-05T08:31:51.071Z,64.32
2023-04-05T08:34:23.921Z,63.26
2023-04-05T08:37:04.099Z,62.03
2023-04-05T08:39:36.184Z,61.18
2023-04-05T08:42:17.843Z,58.18
2023-04-05T08:44:52.016Z,58.18
2023-04-05T08:47:29.607Z,58.70
2023-04-05T08:50:04.088Z,57.68
2023-04-05T08:52:39.964Z,57.68
2023-04-05T08:55:10.609Z,58.96
2023-04-05T08:57:43.960Z,58.96
2023-04-05T09:00:15.381Z,59.33
2023-04-05T09:02:49.498Z,59.33
2023-04-05T09:05:20.889Z,59.86
2023-04-05T09:07:52.244Z,60.87
2023-04-05T09:10:30.786Z,60.88
2023-04-05T09:13:10.729Z,60.88
2023-04-05T09:15:41.601Z,61.34
2023-04-05T09:18:23.220Z,63.07
2023-04-05T09:20:44.167Z,63.07
2023-04-05T09:23:15.517Z,64.09
2023-04-05T09:25:46.191Z,63.24
2023-04-05T09:28:18.201Z,62.01
2023-04-05T09:30:51.035Z,65.38
2023-04-05T09:33:32.188Z,65.38
2023-04-05T09:36:03.722Z,63.75
2023-04-05T09:38:45.897Z,66.12
2023-04-05T09:41:16.373Z,68.58
2023-04-05T09:43:46.972Z,68.71
2023-04-05T09:46:40.256Z,67.73
2023-04-05T09:49:11.398Z,68.50
2023-04-05T09:51:41.852Z,68.50
2023-04-05T09:54:13.021Z,69.23
2023-04-05T09:56:46.271Z,68.11
2023-04-05T09:59:18.067Z,68.11
2023-04-05T10:01:56.636Z,70.42
2023-04-05T10:04:29.393Z,71.93
2023-04-05T10:07:00.167Z,71.98
2023-04-05T10:09:35.577Z,71.83
2023-04-05T10:12:09.863Z,71.72
2023-04-05T10:14:42.030Z,73.51
2023-04-05T10:17:45.910Z,73.51
2023-04-05T10:20:24.184Z,74.05
2023-04-05T10:23:03.920Z,76.02
2023-04-05T10:26:01.444Z,80.34
2023-04-05T10:28:40.319Z,80.34
2023-04-05T10:31:38.151Z,80.20
2023-04-05T10:34:09.372Z,80.56
2023-04-05T10:36:52.272Z,80.56
2023-04-05T10:39:28.839Z,81.03
2023-04-05T10:42:10.290Z,83.17
2023-04-05T10:44:46.769Z,83.17
2023-04-05T10:47:20.142Z,84.55
2023-04-05T10:49:53.592Z,84.98
2023-04-05T10:52:24.359Z,84.29
2023-04-05T10:54:57.265Z,84.29
2023-04-05T10:57:29.457Z,84.78
2023-04-05T11:00:01.523Z,83.22
2023-04-05T11:02:33.056Z,83.99
2023-04-05T11:05:06.775Z,84.42
2023-04-05T11:07:44.976Z,84.79
2023-04-05T11:10:21.513Z,84.03
2023-04-05T11:12:58.327Z,84.14
2023-04-05T11:15:30.706Z,84.86
2023-04-05T11:18:12.669Z,84.94
2023-04-05T11:20:46.298Z,85.29
2023-04-05T11:23:20.772Z,85.04
2023-04-05T11:25:56.782Z,85.42
2023-04-05T11:28:30.004Z,85.42
2023-04-05T11:31:14.199Z,85.79
2023-04-05T11:33:59.240Z,86.00
2023-04-05T11:36:33.051Z,86.58
2023-04-05T11:39:23.860Z,86.58
2023-04-05T11:41:57.263Z,87.21
2023-04-05T11:44:29.566Z,87.21
2023-04-05T11:47:09.770Z,87.12
2023-04-05T11:49:43.040Z,86.80
2023-04-05T11:52:21.798Z,86.80
2023-04-05T11:55:03.946Z,84.74
2023-04-05T11:57:47.761Z,84.92
2023-04-05T12:00:23.929Z,84.92
2023-04-05T12:03:04.871Z,84.50
2023-04-05T12:05:50.963Z,83.56
2023-04-05T12:08:29.589Z,83.27
2023-04-05T12:11:00.828Z,82.56
2023-04-05T12:13:34.858Z,82.56
2023-04-05T12:16:08.229Z,83.34
2023-04-05T12:18:42.076Z,83.34
2023-04-05T12:21:13.007Z,84.11
2023-04-05T12:23:43.690Z,84.06
2023-04-05T12:26:16.535Z,84.37
2023-04-05T12:28:56.334Z,85.47
2023-04-05T12:31:44.746Z,87.39
2023-04-05T12:34:17.667Z,87.39
2023-04-05T12:36:48.850Z,89.78
2023-04-05T12:39:20.849Z,89.78
2023-04-05T12:42:02.155Z,90.83
2023-04-05T12:47:59.236Z,91.09
2023-04-05T12:50:32.153Z,91.65
2023-04-05T12:53:08.425Z,92.08
2023-04-05T12:55:44.837Z,92.08
2023-04-05T12:58:17.556Z,92.45
2023-04-05T13:00:49.767Z,91.94
2023-04-05T13:03:31.233Z,91.74
2023-04-05T13:06:02.401Z,91.86
2023-04-05T13:08:34.998Z,91.53
2023-04-05T13:11:07.259Z,91.53
2023-04-05T13:13:38.270Z,92.33
2023-04-05T13:16:10.533Z,92.52
2023-04-05T13:18:41.100Z,92.52
2023-04-05T13:21:12.215Z,94.04
2023-04-05T13:23:47.121Z,94.04
2023-04-05T13:26:21.130Z,94.47
2023-04-05T13:28:51.641Z,93.36
2023-04-05T13:31:27.162Z,94.79
2023-04-05T13:34:03.246Z,93.25
2023-04-05T13:36:37.243Z,93.88
2023-04-05T13:39:21.435Z,94.05
2023-04-05T13:41:53.521Z,95.04
2023-04-05T13:44:24.719Z,95.10
2023-04-05T13:46:55.108Z,95.10
2023-04-05T13:49:25.564Z,96.74
2023-04-05T13:51:56.224Z,97.54
2023-04-05T13:54:32.208Z,98.35
2023-04-05T13:57:05.133Z,98.35
2023-04-05T13:59:38.024Z,98.65
2023-04-05T14:02:08.791Z,96.98
2023-04-05T14:04:42.615Z,97.15
2023-04-05T14:07:14.860Z,97.91
2023-04-05T14:09:45.904Z,97.91
2023-04-05T14:12:21.063Z,98.03
2023-04-05T14:14:53.255Z,98.28
2023-04-05T14:17:24.368Z,98.29
2023-04-05T14:19:56.221Z,98.29
2023-04-05T14:22:26.636Z,98.79
2023-04-05T14:24:57.149Z,98.79
2023-04-05T14:27:27.652Z,99.54
2023-04-05T14:29:58.172Z,98.83
2023-04-05T14:32:29.404Z,99.94
2023-04-05T14:35:04.152Z,100.00
2023-04-05T14:37:34.927Z,100.00
2023-04-05T14:40:05.943Z,100.00
2023-04-05T14:42:50.399Z,100.00
2023-04-05T14:45:22.039Z,100.00
2023-04-05T14:47:53.590Z,100.00
2023-04-05T14:50:25.546Z,100.00
2023-04-05T14:53:00.315Z,100.00
2023-04-05T14:55:30.960Z,100.00
2023-04-05T14:58:02.296Z,100.00
2023-04-05T15:00:36.685Z,100.00
2023-04-05T15:03:26.091Z,100.00
2023-04-05T15:06:03.962Z,100.00
2023-04-05T15:08:35.294Z,100.00
2023-04-05T15:11:05.847Z,100.00
2023-04-05T15:13:39.617Z,100.00
2023-04-05T15:16:10.125Z,100.00
2023-04-05T15:18:42.266Z,100.00
2023-04-05T15:21:13.179Z,100.00
2023-04-05T15:23:46.630Z,100.00
2023-04-05T15:26:21.482Z,100.00
2023-04-05T15:29:04.388Z,100.00
2023-04-05T15:31:38.328Z,100.00
2023-04-05T15:34:09.164Z,100.00
2023-04-05T15:36:58.482Z,100.00
2023-04-05T15:39:29.259Z,100.00
2023-04-05T15:42:02.623Z,100.00
2023-04-05T15:44:34.431Z,100.00
2023-04-05T15:47:05.264Z,100.00
2023-04-05T15:49:36.328Z,100.00
2023-04-05T15:52:07.217Z,100.00
2023-04-05T15:54:55.477Z,100.00
2023-04-05T15:57:28.216Z,100.00
2023-04-05T16:00:04.980Z,100.00
2023-04-05T16:02:41.846Z,100.00
2023-04-05T16:05:13.148Z,100.00
2023-04-05T16:07:46.317Z,100.00
2023-04-05T16:10:21.468Z,100.00
2023-04-05T16:12:55.264Z,100.00
2023-04-05T16:15:27.136Z,100.00
2023-04-05T16:18:00.612Z,100.00
2023-04-05T16:20:35.100Z,100.00
2023-04-05T16:23:11.236Z,100.00
2023-04-05T16:25:42.002Z,100.00
2023-04-05T16:28:13.087Z,100.00
2023-04-05T16:30:50.104Z,100.00
2023-04-05T16:33:25.742Z,100.00
2023-04-05T16:39:05.572Z,100.00
2023-04-05T16:41:32.158Z,100.00
2023-04-05T16:44:03.641Z,100.00
2023-04-05T16:46:34.819Z,100.00
2023-04-05T16:49:07.027Z,100.00
2023-04-05T16:51:39.042Z,100.00
2023-04-05T16:54:13.579Z,100.00
2023-04-05T16:56:44.283Z,100.00
2023-04-05T16:59:18.679Z,100.00
2023-04-05T17:02:00.549Z,100.00
2023-04-05T17:07:30.082Z,100.00
2023-04-05T17:10:06.526Z,100.00
2023-04-05T17:12:55.099Z,100.00
2023-04-05T17:15:25.725Z,100.00
2023-04-05T17:17:58.013Z,100.00
2023-04-05T17:20:35.426Z,100.00
2023-04-05T17:23:09.909Z,100.00
2023-04-05T17:25:43.224Z,100.00
2023-04-05T17:28:15.649Z,100.00
2023-04-05T17:30:53.313Z,100.00
2023-04-05T17:33:27.503Z,100.00
2023-04-05T17:36:00.626Z,100.00
2023-04-05T17:38:34.398Z,100.00
2023-04-05T17:41:23.154Z,100.00
2023-04-05T17:43:55.193Z,100.00
2023-04-05T17:46:37.795Z,100.00
2023-04-05T17:49:01.733Z,100.00
2023-04-05T17:51:35.370Z,100.00
2023-04-05T17:54:09.863Z,100.00
2023-04-05T17:56:51.417Z,100.00
2023-04-05T17:59:22.203Z,100.00
2023-04-05T18:01:59.363Z,100.00
2023-04-05T18:04:30.272Z,100.00
2023-04-05T18:07:01.113Z,100.00
2023-04-05T18:09:32.863Z,100.00
2023-04-05T18:12:03.630Z,100.00
2023-04-05T18:14:35.402Z,100.00
2023-04-05T18:17:08.084Z,100.00
2023-04-05T18:19:38.939Z,100.00
2023-04-05T18:22:10.239Z,100.00
2023-04-05T18:24:42.605Z,100.00
2023-04-05T18:27:19.253Z,100.00
2023-04-05T18:30:18.523Z,100.00
2023-04-05T18:33:15.153Z,100.00
2023-04-05T18:35:52.929Z,100.00
2023-04-05T18:38:34.395Z,100.00
2023-04-05T18:41:15.168Z,100.00
2023-04-05T18:44:06.612Z,100.00
2023-04-05T18:46:44.646Z,100.00
2023-04-05T18:49:22.038Z,100.00
2023-04-05T18:51:53.188Z,100.00
2023-04-05T18:54:24.275Z,100.00
2023-04-05T18:57:02.364Z,100.00
2023-04-05T18:59:33.004Z,100.00
2023-04-05T19:02:11.707Z,100.00
2023-04-05T19:04:45.922Z,100.00
2023-04-05T19:07:16.977Z,100.00
2023-04-05T19:09:47.596Z,100.00
2023-04-05T19:12:23.462Z,100.00
2023-04-05T19:14:56.227Z,100.00
2023-04-05T19:17:27.360Z,100.00
2023-04-05T19:20:02.136Z,100.00
2023-04-05T19:22:33.395Z,100.00
2023-04-05T19:25:05.127Z,100.00
2023-04-05T19:27:37.824Z,100.00
2023-04-05T19:33:20.216Z,100.00
2023-04-05T19:35:51.449Z,100.00
2023-04-05T19:38:25.708Z,100.00
2023-04-05T19:40:56.987Z,100.00
2023-04-05T19:43:27.969Z,100.00
2023-04-05T19:46:01.332Z,100.00
2023-04-05T19:48:44.323Z,100.00
2023-04-05T19:51:16.397Z,100.00
2023-04-05T19:53:49.422Z,100.00
2023-04-05T19:56:26.846Z,100.00
2023-04-05T19:59:03.912Z,100.00
2023-04-05T20:01:37.768Z,100.00
2023-04-05T20:04:17.102Z,100.00
2023-04-05T20:06:50.343Z,100.00
2023-04-05T20:09:22.792Z,100.00
2023-04-05T20:12:13.185Z,100.00
2023-04-05T20:14:45.853Z,100.00
2023-04-05T20:17:19.035Z,100.00
2023-04-05T20:19:58.380Z,100.00
2023-04-05T20:22:33.221Z,100.00
2023-04-05T20:25:16.012Z,100.00
2023-04-05T20:27:48.767Z,100.00
2023-04-05T20:30:19.569Z,100.00
2023-04-05T20:32:50.742Z,100.00
2023-04-05T20:35:36.205Z,100.00
2023-04-05T20:38:07.020Z,100.00
2023-04-05T20:40:40.283Z,100.00
2023-04-05T20:43:11.502Z,100.00
2023-04-05T20:45:42.787Z,100.00
2023-04-05T20:48:13.437Z,100.00
2023-04-05T20:50:44.180Z,100.00
2023-04-05T20:53:14.934Z,100.00
2023-04-05T20:55:45.367Z,100.00
2023-04-05T20:58:16.571Z,100.00
2023-04-05T21:00:48.427Z,100.00
2023-04-05T21:03:19.732Z,100.00
2023-04-05T21:05:50.345Z,100.00
2023-04-05T21:08:20.876Z,100.00
2023-04-05T21:10:52.568Z,100.00
2023-04-05T21:13:25.313Z,100.00
2023-04-05T21:15:59.368Z,100.00
2023-04-05T21:18:30.369Z,100.00
2023-04-05T21:21:00.964Z,100.00
2023-04-05T21:23:37.168Z,100.00
2023-04-05T21:26:09.285Z,100.00
2023-04-05T21:28:40.414Z,100.00
2023-04-05T21:31:11.098Z,100.00
2023-04-05T21:33:41.580Z,100.00
2023-04-05T21:36:12.095Z,100.00
2023-04-05T21:38:42.840Z,100.00
2023-04-05T21:41:15.666Z,100.00
2023-04-05T21:43:46.570Z,100.00
2023-04-05T21:46:18.830Z,100.00
2023-04-05T21:48:49.978Z,100.00
2023-04-05T21:51:20.755Z,100.00
2023-04-05T21:53:52.022Z,100.00
2023-04-05T21:56:26.950Z,100.00
2023-04-05T21:59:00.459Z,100.00
2023-04-05T22:01:33.177Z,100.00
2023-04-05T22:04:04.372Z,100.00
2023-04-05T22:06:36.200Z,100.00
2023-04-05T22:09:08.188Z,100.00
2023-04-05T22:11:38.800Z,100.00
2023-04-05T22:14:11.800Z,100.00
2023-04-05T22:16:43.342Z,100.00
2023-04-05T22:19:14.818Z,100.00
2023-04-05T22:21:45.333Z,100.00
2023-04-05T22:24:16.100Z,100.00
2023-04-05T22:26:47.142Z,100.00
2023-04-05T22:29:17.836Z,100.00
2023-04-05T22:31:49.500Z,100.00
2023-04-05T22:34:20.091Z,100.00
2023-04-05T22:36:50.628Z,100.00
2023-04-05T22:39:24.321Z,100.00
2023-04-05T22:41:55.194Z,100.00
2023-04-05T22:44:27.786Z,100.00
2023-04-05T22:46:58.218Z,100.00
2023-04-05T22:49:29.299Z,100.00
2023-04-05T22:51:59.787Z,100.00
2023-04-05T22:54:30.228Z,100.00
2023-04-05T22:57:00.697Z,100.00
2023-04-05T22:59:31.743Z,100.00
2023-04-05T23:02:02.824Z,100.00
2023-04-05T23:04:35.064Z,100.00
2023-04-05T23:07:05.803Z,100.00
2023-04-05T23:09:36.735Z,100.00
2023-04-05T23:12:08.040Z,100.00
2023-04-05T23:14:38.578Z,100.00
2023-04-05T23:17:09.405Z,100.00
2023-04-05T23:19:40.697Z,100.00
2023-04-05T23:22:11.202Z,100.00
2023-04-05T23:24:41.948Z,100.00
2023-04-05T23:27:12.398Z,100.00
2023-04-05T23:29:43.694Z,100.00
2023-04-05T23:32:14.729Z,100.00
2023-04-05T23:34:45.215Z,100.00
2023-04-05T23:37:15.761Z,100.00
2023-04-05T23:39:46.853Z,100.00
2023-04-05T23:42:21.435Z,100.00
2023-04-05T23:44:54.914Z,100.00
2023-04-05T23:50:20.692Z,100.00
2023-04-05T23:52:51.233Z,100.00
2023-04-05T23:55:21.785Z,100.00
2023-04-05T23:57:52.292Z,100.00
